Time;durP1;ratioP1;P1;durP2;ratioP2;P2;SDS_P1;SDS_P2;PMS_P1;PMS_P2;Temp;Humidity;BMP_temperature;BMP_pressure;BME280_temperature;BME280_humidity;BME280_pressure;Samples;Min_cycle;Max_cycle;Signal;HPM_P1;HPM_P2
2023/02/10 00:01:06;;;;;;;1999.90;999.90;;;1.20;99.90;;;;;;5072208;28;20473;-72
2023/02/10 00:03:32;;;;;;;1999.90;999.90;;;1.20;99.90;;;;;;5071416;28;20032;-71
2023/02/10 00:05:58;;;;;;;1999.90;999.90;;;1.20;99.90;;;;;;5054105;28;20029;-71
2023/02/10 00:08:24;;;;;;;1999.90;999.90;;;1.20;99.90;;;;;;5072368;28;20074;-71
2023/02/10 00:10:50;;;;;;;1999.90;999.90;;;1.20;99.90;;;;;;5072039;28;20052;-72
2023/02/10 00:13:16;;;;;;;1999.90;999.90;;;1.10;99.90;;;;;;5071973;28;20044;-72
2023/02/10 00:15:41;;;;;;;1999.90;999.90;;;1.10;99.90;;;;;;5072124;28;20118;-71
2023/02/10 00:18:07;;;;;;;1999.90;999.90;;;1.20;99.90;;;;;;5072317;28;20503;-79
2023/02/10 00:20:33;;;;;;;1999.90;999.90;;;1.10;99.90;;;;;;5071671;28;20031;-72
2023/02/10 00:22:59;;;;;;;1999.90;999.90;;;1.00;99.90;;;;;;5071709;28;20025;-71
2023/02/10 00:25:24;;;;;;;1999.90;999.90;;;1.10;99.90;;;;;;5071898;28;20044;-71
2023/02/10 00:27:50;;;;;;;1999.90;999.90;;;0.90;99.90;;;;;;5071921;28;20481;-79
2023/02/10 00:30:16;;;;;;;1999.90;999.90;;;0.90;99.90;;;;;;5072038;28;20441;-71
2023/02/10 00:32:41;;;;;;;1999.90;999.90;;;0.90;99.90;;;;;;5071945;28;20028;-71
2023/02/10 00:35:08;;;;;;;1999.90;999.90;;;0.90;99.90;;;;;;5071804;28;20025;-71
2023/02/10 00:37:34;;;;;;;1999.90;999.90;;;0.80;99.90;;;;;;5079300;28;20020;-72
2023/02/10 00:39:59;;;;;;;1999.90;999.90;;;0.70;99.90;;;;;;5076492;28;20590;-79
2023/02/10 00:42:25;;;;;;;1999.90;999.90;;;0.70;99.90;;;;;;5093031;28;20028;-79
2023/02/10 00:44:51;;;;;;;1999.90;999.90;;;0.70;99.90;;;;;;5099429;28;20100;-72
2023/02/10 00:47:17;;;;;;;1999.90;999.90;;;0.70;99.90;;;;;;5096027;28;20058;-71
2023/02/10 00:49:42;;;;;;;1999.90;999.90;;;0.70;99.90;;;;;;5096130;28;20028;-72
2023/02/10 00:52:08;;;;;;;1999.90;999.90;;;0.60;99.90;;;;;;5084908;28;20025;-72
2023/02/10 00:54:34;;;;;;;1999.90;999.90;;;0.60;99.90;;;;;;5075825;28;20056;-79
2023/02/10 00:57:00;;;;;;;1999.90;999.90;;;0.60;99.90;;;;;;5075623;28;20050;-79
2023/02/10 00:59:25;;;;;;;1999.90;999.90;;;0.60;99.90;;;;;;5075428;28;20106;-71
2023/02/10 01:01:51;;;;;;;1999.90;999.90;;;0.60;99.90;;;;;;5075637;28;20063;-71
2023/02/10 01:04:17;;;;;;;1999.90;999.90;;;0.50;99.90;;;;;;5075684;28;20024;-72
2023/02/10 01:06:42;;;;;;;1999.90;999.90;;;0.50;99.90;;;;;;5075796;28;20055;-79
2023/02/10 01:09:08;;;;;;;1999.90;999.90;;;0.40;99.90;;;;;;5075255;28;20120;-79
2023/02/10 01:11:34;;;;;;;1999.90;999.90;;;0.40;99.90;;;;;;5075314;28;20033;-71
2023/02/10 01:13:59;;;;;;;1999.90;999.90;;;0.40;99.90;;;;;;5075335;28;20024;-71
2023/02/10 01:16:25;;;;;;;1999.90;999.90;;;0.40;99.90;;;;;;5074997;28;20028;-71
2023/02/10 01:18:50;;;;;;;1999.90;999.90;;;0.40;99.90;;;;;;5075112;28;20020;-78
2023/02/10 01:21:19;;;;;;;1999.90;999.90;;;0.40;99.90;;;;;;5074646;28;20102;-79
2023/02/10 01:23:46;;;;;;;1999.90;999.90;;;0.30;99.90;;;;;;5074963;28;20027;-71
2023/02/10 01:26:12;;;;;;;1999.90;999.90;;;0.30;99.90;;;;;;5075143;28;20028;-71
2023/02/10 01:28:39;;;;;;;1999.90;999.90;;;0.20;99.90;;;;;;5075270;28;20477;-71
2023/02/10 01:31:06;;;;;;;1999.90;999.90;;;0.20;99.90;;;;;;5075010;28;20016;-72
2023/02/10 01:33:32;;;;;;;1999.90;999.90;;;0.20;99.90;;;;;;5057057;28;20468;-79
2023/02/10 01:35:58;;;;;;;1999.90;999.90;;;0.20;99.90;;;;;;5074782;28;20048;-79
2023/02/10 01:38:23;;;;;;;1999.90;999.90;;;0.10;99.90;;;;;;5089595;28;20024;-71
2023/02/10 01:40:49;;;;;;;1999.90;999.90;;;0.10;99.90;;;;;;5095180;28;20020;-72
2023/02/10 01:43:21;;;;;;;1999.90;999.90;;;0.10;99.90;;;;;;5095208;28;20031;-71
2023/02/10 01:45:46;;;;;;;1999.90;999.90;;;0.10;99.90;;;;;;5072530;28;20067;-79
2023/02/10 01:48:12;;;;;;;1999.90;999.90;;;0.10;99.90;;;;;;5090243;28;20496;-72
2023/02/10 01:50:42;;;;;;;1999.90;999.90;;;0.10;99.90;;;;;;5093957;28;20066;-71
2023/02/10 01:53:09;;;;;;;1999.90;999.90;;;0.10;99.90;;;;;;5073460;28;20039;-72
2023/02/10 01:55:39;;;;;;;1999.90;999.90;;;0.10;99.90;;;;;;5073365;28;20024;-72
2023/02/10 01:58:08;;;;;;;1999.90;999.90;;;0.10;99.90;;;;;;5073489;28;20501;-79
2023/02/10 02:00:34;;;;;;;1999.90;999.90;;;0.10;99.90;;;;;;5055385;28;20040;-79
2023/02/10 02:03:01;;;;;;;1999.90;999.90;;;0.10;99.90;;;;;;5073247;28;20447;-72
2023/02/10 02:05:33;;;;;;;1999.90;999.90;;;0.10;99.90;;;;;;5073193;28;20025;-71
2023/02/10 02:08:05;;;;;;;1999.90;999.90;;;0.10;99.90;;;;;;5073333;28;20028;-71
2023/02/10 02:10:51;;;;;;;1999.90;999.90;;;0.10;99.90;;;;;;5073408;28;20017;-79
2023/02/10 02:13:34;;;;;;;1999.90;999.90;;;0.10;99.90;;;;;;5072577;28;20515;-77
2023/02/10 02:16:24;;;;;;;1999.90;999.90;;;0.10;99.90;;;;;;5073122;28;20496;-71
2023/02/10 02:18:52;;;;;;;1999.90;999.90;;;0.10;99.90;;;;;;5071870;28;20043;-71
2023/02/10 02:21:47;;;;;;;1999.90;999.90;;;0.10;99.90;;;;;;5072045;28;20025;-72
2023/02/10 02:24:27;;;;;;;1999.90;999.90;;;0.10;99.90;;;;;;5028469;28;20052;-78
2023/02/10 02:27:08;;;;;;;1999.90;999.90;;;0.20;99.90;;;;;;5072882;28;20450;-78
2023/02/10 02:29:42;;;;;;;1999.90;999.90;;;0.20;99.90;;;;;;5072901;28;20396;-71
2023/02/10 02:32:07;;;;;;;1999.90;999.90;;;0.20;99.90;;;;;;5073101;28;20016;-71
2023/02/10 02:34:50;;;;;;;1999.90;999.90;;;0.20;99.90;;;;;;5073036;28;20025;-71
2023/02/10 02:37:23;;;;;;;1999.90;999.90;;;0.10;99.90;;;;;;5072492;28;20020;-79
2023/02/10 02:39:51;;;;;;;1999.90;999.90;;;0.10;99.90;;;;;;5074493;28;20040;-79
2023/02/10 02:42:25;;;;;;;1999.90;999.90;;;0.10;99.90;;;;;;5075214;28;20392;-71
2023/02/10 02:45:02;;;;;;;1999.90;999.90;;;0.10;99.90;;;;;;5053200;28;1119619;-72
2023/02/10 02:47:41;;;;;;;1999.90;999.90;;;0.10;99.90;;;;;;5092148;28;20031;-71
2023/02/10 02:50:20;;;;;;;1999.90;999.90;;;0.10;99.90;;;;;;5093681;28;20031;-79
2023/02/10 02:52:59;;;;;;;1999.90;999.90;;;0.00;99.90;;;;;;5071896;28;20472;-79
2023/02/10 02:55:30;;;;;;;1999.90;999.90;;;0.00;99.90;;;;;;5073284;28;20063;-71
2023/02/10 02:58:04;;;;;;;1999.90;999.90;;;0.00;99.90;;;;;;5073280;28;20081;-71
2023/02/10 03:00:32;;;;;;;1999.90;999.90;;;-0.10;99.90;;;;;;5073568;28;20500;-72
2023/02/10 03:02:59;;;;;;;1999.90;999.90;;;-0.10;99.90;;;;;;5072998;28;20023;-72
2023/02/10 03:05:30;;;;;;;1999.90;999.90;;;-0.10;99.90;;;;;;5072199;28;20509;-71
2023/02/10 03:07:56;;;;;;;1999.90;999.90;;;-0.10;99.90;;;;;;5073107;28;20029;-71
2023/02/10 03:10:22;;;;;;;1999.90;999.90;;;-0.20;99.90;;;;;;5072540;28;20033;-72
2023/02/10 03:12:48;;;;;;;1999.90;999.90;;;-0.20;99.90;;;;;;5073202;28;20062;-72
2023/02/10 03:15:13;;;;;;;1999.90;999.90;;;-0.20;99.90;;;;;;5072818;28;20441;-72
2023/02/10 03:17:40;;;;;;;1999.90;999.90;;;-0.20;99.90;;;;;;5063659;28;20067;-79
2023/02/10 03:20:06;;;;;;;1999.90;999.90;;;-0.10;99.90;;;;;;5072442;28;20060;-72
2023/02/10 03:22:32;;;;;;;1999.90;999.90;;;-0.20;99.90;;;;;;5072415;28;20036;-72
2023/02/10 03:24:57;;;;;;;1999.90;999.90;;;-0.20;99.90;;;;;;5072593;28;20039;-72
2023/02/10 03:27:23;;;;;;;1999.90;999.90;;;-0.20;99.90;;;;;;5072689;28;20066;-72
2023/02/10 03:29:49;;;;;;;1999.90;999.90;;;-0.20;99.90;;;;;;5054564;28;20481;-79
2023/02/10 03:32:16;;;;;;;1999.90;999.90;;;-0.20;99.90;;;;;;5072999;28;20021;-78
2023/02/10 03:34:42;;;;;;;1999.90;999.90;;;-0.20;99.90;;;;;;5051567;28;20120;-72
2023/02/10 03:37:07;;;;;;;1999.90;999.90;;;-0.20;99.90;;;;;;5071859;28;20085;-72
2023/02/10 03:39:33;;;;;;;1999.90;999.90;;;-0.20;99.90;;;;;;5092756;28;20447;-72
2023/02/10 03:41:59;;;;;;;1999.90;999.90;;;-0.20;99.90;;;;;;5092755;28;20480;-79
2023/02/10 03:44:24;;;;;;;1999.90;999.90;;;-0.30;99.90;;;;;;5092829;28;20036;-78
2023/02/10 03:46:50;;;;;;;1999.90;999.90;;;-0.30;99.90;;;;;;5092504;28;20097;-72
2023/02/10 03:49:16;;;;;;;1999.90;999.90;;;-0.30;99.90;;;;;;5092689;28;20099;-72
2023/02/10 03:51:41;;;;;;;1999.90;999.90;;;-0.40;99.90;;;;;;5084933;28;20027;-72
2023/02/10 03:54:07;;;;;;;1999.90;999.90;;;-0.40;99.90;;;;;;5072430;28;20094;-71
2023/02/10 03:56:33;;;;;;;1999.90;999.90;;;-0.40;99.90;;;;;;5072494;28;20020;-79
2023/02/10 03:59:03;;;;;;;1999.90;999.90;;;-0.40;99.90;;;;;;5072252;28;20484;-79
2023/02/10 04:01:28;;;;;;;1999.90;999.90;;;-0.50;99.90;;;;;;5072329;28;20032;-71
2023/02/10 04:03:54;;;;;;;1999.90;999.90;;;-0.50;99.90;;;;;;5072065;28;20574;-72
2023/02/10 04:06:19;;;;;;;1999.90;999.90;;;-0.40;99.90;;;;;;5072360;28;20111;-71
2023/02/10 04:08:47;;;;;;;1999.90;999.90;;;-0.50;99.90;;;;;;5072162;28;20028;-78
2023/02/10 04:11:13;;;;;;;1999.90;999.90;;;-0.50;99.90;;;;;;5072068;28;20048;-79
2023/02/10 04:13:39;;;;;;;1999.90;999.90;;;-0.50;99.90;;;;;;5071897;28;20485;-72
2023/02/10 04:16:10;;;;;;;1999.90;999.90;;;-0.50;99.90;;;;;;5072087;28;20024;-71
2023/02/10 04:18:38;;;;;;;1999.90;999.90;;;-0.50;99.90;;;;;;5071618;28;20027;-72
2023/02/10 04:21:05;;;;;;;1999.90;999.90;;;-0.60;99.90;;;;;;5071991;28;20017;-79
2023/02/10 04:23:31;;;;;;;1999.90;999.90;;;-0.60;99.90;;;;;;5071392;28;20062;-79
2023/02/10 04:25:58;;;;;;;1999.90;999.90;;;-0.60;99.90;;;;;;5071937;28;20508;-72
2023/02/10 04:28:24;;;;;;;1999.90;999.90;;;-0.60;99.90;;;;;;5072151;28;20481;-72
2023/02/10 04:30:58;;;;;;;1999.90;999.90;;;-0.70;99.90;;;;;;5070714;28;20451;-72
2023/02/10 04:33:25;;;;;;;1999.90;999.90;;;-0.70;99.90;;;;;;5071905;28;20485;-71
2023/02/10 04:35:52;;;;;;;1999.90;999.90;;;-0.70;99.90;;;;;;5071981;28;20020;-79
2023/02/10 04:38:19;;;;;;;1999.90;999.90;;;-0.70;99.90;;;;;;5085370;28;20070;-78
2023/02/10 04:40:44;;;;;;;1999.90;999.90;;;-0.60;99.90;;;;;;5091967;28;20028;-72
2023/02/10 04:43:11;;;;;;;1999.90;999.90;;;-0.60;99.90;;;;;;5091862;28;20450;-71
2023/02/10 04:45:38;;;;;;;1999.90;999.90;;;-0.60;99.90;;;;;;5091678;28;20424;-72
2023/02/10 04:48:04;;;;;;;1999.90;999.90;;;-0.60;99.90;;;;;;5092078;28;20061;-79
2023/02/10 04:50:30;;;;;;;1999.90;999.90;;;-0.60;99.90;;;;;;5092154;28;20210;-78
2023/02/10 04:52:55;;;;;;;1999.90;999.90;;;-0.60;99.90;;;;;;5073974;28;20145;-72
2023/02/10 04:55:21;;;;;;;1999.90;999.90;;;-0.60;99.90;;;;;;5071424;28;20029;-72
2023/02/10 04:57:47;;;;;;;1999.90;999.90;;;-0.70;99.90;;;;;;5050494;28;20021;-71
2023/02/10 05:00:13;;;;;;;1999.90;999.90;;;-0.70;99.90;;;;;;5068181;28;20036;-72
2023/02/10 05:02:38;;;;;;;1999.90;999.90;;;-0.70;99.90;;;;;;5071842;28;20039;-72
2023/02/10 05:05:05;;;;;;;1999.90;999.90;;;-0.70;99.90;;;;;;5053266;28;20033;-71
2023/02/10 05:07:31;;;;;;;1999.90;999.90;;;-0.70;99.90;;;;;;5071968;28;20028;-72
2023/02/10 05:09:56;;;;;;;1999.90;999.90;;;-0.60;99.90;;;;;;5071543;28;20036;-71
2023/02/10 05:12:22;;;;;;;1999.90;999.90;;;-0.60;99.90;;;;;;5071801;28;20025;-72
2023/02/10 05:14:48;;;;;;;1999.90;999.90;;;-0.50;99.90;;;;;;5071683;28;20107;-79
2023/02/10 05:17:13;;;;;;;1999.90;999.90;;;-0.50;99.90;;;;;;5071389;28;20032;-79
2023/02/10 05:19:39;;;;;;;1999.90;999.90;;;-0.50;99.90;;;;;;5071337;28;20103;-71
2023/02/10 05:22:04;;;;;;;1999.90;999.90;;;-0.50;99.90;;;;;;5069657;28;20546;-71
2023/02/10 05:24:30;;;;;;;1999.90;999.90;;;-0.50;99.90;;;;;;5052348;28;20025;-72
2023/02/10 05:26:56;;;;;;;1999.90;999.90;;;-0.50;99.90;;;;;;5071249;28;20021;-78
2023/02/10 05:29:21;;;;;;;1999.90;999.90;;;-0.40;99.90;;;;;;5074464;28;20545;-79
2023/02/10 05:31:47;;;;;;;1999.90;999.90;;;-0.30;99.90;;;;;;5074779;28;20374;-72
2023/02/10 05:34:13;;;;;;;1999.90;999.90;;;-0.30;99.90;;;;;;5074537;28;20067;-72
2023/02/10 05:36:38;;;;;;;1999.90;999.90;;;-0.30;99.90;;;;;;5091038;28;20035;-72
2023/02/10 05:39:22;;;;;;;1999.90;999.90;;;-0.30;99.90;;;;;;5074434;28;20039;-78
2023/02/10 05:41:48;;;;;;;1999.90;999.90;;;-0.30;99.90;;;;;;5053570;28;20086;-78
2023/02/10 05:44:14;;;;;;;1999.90;999.90;;;-0.30;99.90;;;;;;5071283;28;20020;-72
2023/02/10 05:46:39;;;;;;;1999.90;999.90;;;-0.40;99.90;;;;;;5088638;28;20500;-72
2023/02/10 05:49:05;;;;;;;1999.90;999.90;;;-0.30;99.90;;;;;;5094762;28;20020;-71
2023/02/10 05:51:31;;;;;;;1999.90;999.90;;;-0.40;99.90;;;;;;5084229;28;20051;-78
2023/02/10 05:53:56;;;;;;;1999.90;999.90;;;-0.40;99.90;;;;;;5074451;28;20028;-79
2023/02/10 05:56:22;;;;;;;1999.90;999.90;;;-0.40;99.90;;;;;;5074510;28;20082;-71
2023/02/10 05:58:48;;;;;;;1999.90;999.90;;;-0.40;99.90;;;;;;5074485;28;20396;-71
2023/02/10 06:01:13;;;;;;;1999.90;999.90;;;-0.40;99.90;;;;;;5074247;28;20024;-71
2023/02/10 06:03:39;;;;;;;1999.90;999.90;;;-0.50;99.90;;;;;;5074289;28;20024;-71
2023/02/10 06:06:05;;;;;;;1999.90;999.90;;;-0.50;99.90;;;;;;5074365;28;20028;-79
2023/02/10 06:08:31;;;;;;;1999.90;999.90;;;-0.40;99.90;;;;;;5074265;28;20504;-78
2023/02/10 06:10:56;;;;;;;1999.90;999.90;;;-0.50;99.90;;;;;;5074136;28;20029;-71
2023/02/10 06:13:22;;;;;;;1999.90;999.90;;;-0.50;99.90;;;;;;5074021;28;20024;-71
2023/02/10 06:15:47;;;;;;;1999.90;999.90;;;-0.50;99.90;;;;;;5074098;28;20090;-71
2023/02/10 06:18:13;;;;;;;1999.90;999.90;;;-0.50;99.90;;;;;;5074296;28;20029;-71
2023/02/10 06:20:39;;;;;;;1999.90;999.90;;;-0.50;99.90;;;;;;5074146;28;20444;-78
2023/02/10 06:23:05;;;;;;;1999.90;999.90;;;-0.50;99.90;;;;;;5073357;28;20035;-72
2023/02/10 06:25:31;;;;;;;1999.90;999.90;;;-0.50;99.90;;;;;;5073703;28;20032;-71
2023/02/10 06:27:56;;;;;;;1999.90;999.90;;;-0.50;99.90;;;;;;5073951;28;20036;-71
2023/02/10 06:30:22;;;;;;;1999.90;999.90;;;-0.60;99.90;;;;;;5074265;28;20031;-72
2023/02/10 06:32:48;;;;;;;1999.90;999.90;;;-0.60;99.90;;;;;;5073910;28;20028;-71
2023/02/10 06:35:14;;;;;;;1999.90;999.90;;;-0.60;99.90;;;;;;5074986;28;20106;-72
2023/02/10 06:37:39;;;;;;;1999.90;999.90;;;-0.60;99.90;;;;;;5093603;28;20107;-72
2023/02/10 06:40:06;;;;;;;1999.90;999.90;;;-0.60;99.90;;;;;;5074656;28;20032;-71
2023/02/10 06:42:32;;;;;;;1999.90;999.90;;;-0.70;99.90;;;;;;5094009;28;20028;-78
2023/02/10 06:44:58;;;;;;;1999.90;999.90;;;-0.70;99.90;;;;;;5093413;28;20052;-72
2023/02/10 06:47:24;;;;;;;1999.90;999.90;;;-0.70;99.90;;;;;;5092277;28;20070;-72
2023/02/10 06:49:49;;;;;;;1999.90;999.90;;;-0.70;99.90;;;;;;5092384;28;20028;-78
2023/02/10 06:52:15;;;;;;;1999.90;999.90;;;-0.60;99.90;;;;;;5071577;28;20115;-79
2023/02/10 06:54:41;;;;;;;1999.90;999.90;;;-0.70;99.90;;;;;;5073431;28;20031;-78
2023/02/10 06:57:07;;;;;;;1999.90;999.90;;;-0.70;99.90;;;;;;5073219;28;20024;-71
2023/02/10 06:59:33;;;;;;;1999.90;999.90;;;-0.70;99.90;;;;;;5072364;28;20145;-71
2023/02/10 07:02:00;;;;;;;1999.90;999.90;;;-0.80;99.90;;;;;;5084703;28;20027;-78
2023/02/10 07:04:30;;;;;;;1999.90;999.90;;;-0.80;99.90;;;;;;5090707;28;20035;-72
2023/02/10 07:06:56;;;;;;;1999.90;999.90;;;-0.80;99.90;;;;;;5092205;28;20039;-78
2023/02/10 07:09:22;;;;;;;1999.90;999.90;;;-0.80;99.90;;;;;;5073770;28;20032;-78
2023/02/10 07:11:48;;;;;;;1999.90;999.90;;;-0.90;99.90;;;;;;5084791;28;20028;-71
2023/02/10 07:14:14;;;;;;;1999.90;999.90;;;-0.90;99.90;;;;;;5087805;28;20033;-72
2023/02/10 07:16:40;;;;;;;1999.90;999.90;;;-0.90;99.90;;;;;;5091065;28;20028;-78
2023/02/10 07:19:05;;;;;;;1999.90;999.90;;;-0.90;99.90;;;;;;5073183;28;20028;-76
2023/02/10 07:21:31;;;;;;;1999.90;999.90;;;-1.00;99.90;;;;;;5091342;28;20069;-78
2023/02/10 07:23:57;;;;;;;1999.90;999.90;;;-1.00;99.90;;;;;;5097697;28;20028;-71
2023/02/10 07:26:23;;;;;;;1999.90;999.90;;;-1.00;99.90;;;;;;5090886;28;20063;-71
2023/02/10 07:28:49;;;;;;;1999.90;999.90;;;-1.00;99.90;;;;;;5091021;28;20563;-78
2023/02/10 07:31:14;;;;;;;1999.90;999.90;;;-0.90;99.90;;;;;;5090515;28;20032;-78
2023/02/10 07:33:40;;;;;;;1999.90;999.90;;;-0.90;99.90;;;;;;5091188;28;20024;-78
2023/02/10 07:36:07;;;;;;;1999.90;999.90;;;-0.90;99.90;;;;;;5097096;28;20035;-78
2023/02/10 07:38:33;;;;;;;1999.90;999.90;;;-0.90;99.90;;;;;;5073564;28;20032;-71
2023/02/10 07:40:59;;;;;;;1999.90;999.90;;;-0.90;99.90;;;;;;5092837;28;20031;-78
2023/02/10 07:43:25;;;;;;;1999.90;999.90;;;-0.90;99.90;;;;;;5090215;28;20840;-78
2023/02/10 07:45:50;;;;;;;1999.90;999.90;;;-0.90;99.90;;;;;;5089569;28;20120;-71
2023/02/10 07:48:19;;;;;;;1999.90;999.90;;;-0.80;99.90;;;;;;5091004;28;20020;-78
2023/02/10 07:50:47;;;;;;;1999.90;999.90;;;-0.80;99.90;;;;;;5084690;28;20115;-71
2023/02/10 07:53:13;;;;;;;1999.90;999.90;;;-0.70;99.90;;;;;;5065011;28;20028;-71
2023/02/10 07:55:39;;;;;;;1999.90;999.90;;;-0.60;99.90;;;;;;5078312;28;20040;-75
2023/02/10 07:58:06;;;;;;;1999.90;999.90;;;-0.60;99.90;;;;;;5090466;28;20027;-77
2023/02/10 08:00:32;;;;;;;1999.90;999.90;;;-0.50;99.90;;;;;;5087089;28;20411;-77
2023/02/10 08:02:57;;;;;;;1999.90;999.90;;;-0.50;99.90;;;;;;5082177;28;20023;-78
2023/02/10 08:05:23;;;;;;;1999.90;999.90;;;-0.40;99.90;;;;;;5060639;28;20118;-71
2023/02/10 08:07:49;;;;;;;1999.90;999.90;;;-0.30;99.90;;;;;;5061649;28;20028;-71
2023/02/10 08:10:15;;;;;;;1999.90;999.90;;;-0.20;99.90;;;;;;5064649;28;20147;-78
2023/02/10 08:12:40;;;;;;;1999.90;999.90;;;-0.10;99.90;;;;;;5077408;28;20028;-78
2023/02/10 08:15:07;;;;;;;1999.90;999.90;;;0.10;99.90;;;;;;5081810;28;20032;-71
2023/02/10 08:17:33;;;;;;;1999.90;999.90;;;0.20;99.90;;;;;;5079684;28;20032;-71
2023/02/10 08:19:59;;;;;;;1999.90;999.90;;;0.40;99.90;;;;;;5077477;28;20025;-77
2023/02/10 08:22:25;;;;;;;1999.90;999.90;;;0.50;99.90;;;;;;5087133;28;20043;-78
2023/02/10 08:24:50;;;;;;;1999.90;999.90;;;0.60;99.90;;;;;;5076452;28;20119;-78
2023/02/10 08:27:17;;;;;;;1999.90;999.90;;;0.80;99.90;;;;;;5076786;28;20431;-78
2023/02/10 08:29:42;;;;;;;1999.90;999.90;;;1.10;99.90;;;;;;5088926;28;20040;-72
2023/02/10 08:32:08;;;;;;;1999.90;999.90;;;1.50;99.90;;;;;;5081521;28;20081;-73
2023/02/10 08:34:34;;;;;;;1999.90;999.90;;;2.70;99.90;;;;;;5089838;28;20036;-78
2023/02/10 08:37:00;;;;;;;1999.90;999.90;;;4.00;99.90;;;;;;5082826;28;20454;-72
2023/02/10 08:39:28;;;;;;;1999.90;999.90;;;5.10;99.90;;;;;;5069685;28;20059;-72
2023/02/10 08:41:54;;;;;;;1999.90;999.90;;;5.90;99.90;;;;;;5073510;28;20431;-72
2023/02/10 08:44:20;;;;;;;1999.90;999.90;;;5.50;99.90;;;;;;5071461;28;20028;-72
2023/02/10 08:46:45;;;;;;;1999.90;999.90;;;4.60;99.90;;;;;;5085163;28;20153;-79
2023/02/10 08:49:11;;;;;;;1999.90;999.90;;;4.10;99.90;;;;;;5083728;28;20528;-72
2023/02/10 08:51:38;;;;;;;1999.90;999.90;;;3.70;99.90;;;;;;5081351;28;20020;-72
2023/02/10 08:54:05;;;;;;;1999.90;999.90;;;3.50;99.90;;;;;;5083647;28;20032;-72
2023/02/10 08:56:31;;;;;;;1999.90;999.90;;;3.50;99.90;;;;;;5073843;28;20389;-72
2023/02/10 08:58:56;;;;;;;1999.90;999.90;;;3.50;99.90;;;;;;5077794;28;20036;-72
2023/02/10 09:01:25;;;;;;;1999.90;999.90;;;3.70;99.90;;;;;;5069228;28;20031;-79
2023/02/10 09:03:52;;;;;;;1999.90;999.90;;;4.10;99.90;;;;;;5087623;28;20028;-72
2023/02/10 09:06:24;;;;;;;1999.90;999.90;;;4.20;99.90;;;;;;5081840;28;20024;-79
2023/02/10 09:08:52;;;;;;;1999.90;999.90;;;4.20;99.90;;;;;;5087122;28;20060;-72
2023/02/10 09:11:19;;;;;;;1999.90;999.90;;;4.30;99.90;;;;;;5066697;28;20028;-72
2023/02/10 09:13:45;;;;;;;1999.90;999.90;;;4.50;99.90;;;;;;5068333;28;20093;-72
2023/02/10 09:16:11;;;;;;;1999.90;999.90;;;4.60;99.90;;;;;;5079293;28;20063;-80
2023/02/10 09:18:36;;;;;;;1999.90;999.90;;;4.50;99.90;;;;;;5086436;28;20540;-72
2023/02/10 09:21:02;;;;;;;1999.90;999.90;;;4.40;99.90;;;;;;5076362;28;20088;-80
2023/02/10 09:23:28;;;;;;;1999.90;999.90;;;4.40;99.90;;;;;;5072177;28;20031;-80
2023/02/10 09:25:56;;;;;;;1999.90;999.90;;;4.40;99.90;;;;;;5079550;28;20027;-77
2023/02/10 09:28:21;;;;;;;1999.90;999.90;;;4.50;99.90;;;;;;5081480;28;20044;-80
2023/02/10 09:30:47;;;;;;;1999.90;999.90;;;4.60;99.90;;;;;;5080345;28;20093;-76
2023/02/10 09:33:13;;;;;;;1999.90;999.90;;;4.80;99.90;;;;;;5080770;28;20492;-72
2023/02/10 09:35:40;;;;;;;1999.90;999.90;;;5.00;99.90;;;;;;5088035;28;20460;-72
2023/02/10 09:38:06;;;;;;;1999.90;999.90;;;5.10;99.90;;;;;;5088797;28;20028;-80
2023/02/10 09:40:37;;;;;;;1999.90;999.90;;;5.30;99.90;;;;;;5084938;28;20395;-78
2023/02/10 09:43:26;;;;;;;1999.90;999.90;;;5.50;99.90;;;;;;5083423;28;20037;-80
2023/02/10 09:46:13;;;;;;;1999.90;999.90;;;5.80;99.90;;;;;;5084053;28;20048;-72
2023/02/10 09:49:25;;;;;;;1999.90;999.90;;;6.00;99.90;;;;;;5047525;28;20570;-81
2023/02/10 09:52:06;;;;;;;1999.90;999.90;;;6.40;99.90;;;;;;5044722;28;20032;-82
2023/02/10 09:54:33;;;;;;;1999.90;999.90;;;6.40;99.90;;;;;;5069903;28;20077;-79
2023/02/10 09:57:11;;;;;;;1999.90;999.90;;;6.50;99.90;;;;;;5082365;28;20035;-78
2023/02/10 09:59:38;;;;;;;1999.90;999.90;;;6.50;99.90;;;;;;5104081;28;20047;-72
2023/02/10 10:02:27;;;;;;;1999.90;999.90;;;6.50;99.90;;;;;;5101270;28;20031;-72
2023/02/10 10:04:54;;;;;;;1999.90;999.90;;;6.50;99.90;;;;;;5105648;28;20050;-80
2023/02/10 10:07:28;;;;;;;1999.90;999.90;;;6.50;99.90;;;;;;5105761;28;20031;-81
2023/02/10 10:10:19;;;;;;;1999.90;999.90;;;6.60;99.90;;;;;;5098462;28;20020;-82
2023/02/10 10:12:45;;;;;;;1999.90;999.90;;;6.70;99.90;;;;;;5097063;28;20020;-73
2023/02/10 10:15:18;;;;;;;1999.90;999.90;;;6.70;99.90;;;;;;5108718;28;20061;-72
2023/02/10 10:17:49;;;;;;;;;;;6.80;99.90;;;;;;5091416;28;20039;-82
2023/02/10 10:20:59;;;;;;;1999.90;999.90;;;6.60;99.90;;;;;;5087147;28;19912;-77
2023/02/10 10:24:17;;;;;;;1999.90;999.90;;;6.70;99.90;;;;;;5008366;28;20117;-82
2023/02/10 10:26:58;;;;;;;1999.90;999.90;;;6.60;99.90;;;;;;4995772;28;20056;-73
2023/02/10 10:29:32;;;;;;;1999.90;999.90;;;6.60;99.90;;;;;;5012412;28;20592;-72
2023/02/10 10:32:28;;;;;;;1999.90;999.90;;;6.80;99.90;;;;;;5029017;28;20029;-73
2023/02/10 10:34:56;;;;;;;1999.90;999.90;;;6.80;99.90;;;;;;5005631;28;20045;-72
2023/02/10 10:37:24;;;;;;;1999.90;999.90;;;6.90;99.90;;;;;;5010526;28;20044;-82
2023/02/10 10:40:12;;;;;;;1999.90;999.90;;;7.00;99.90;;;;;;5013299;28;20048;-73
2023/02/10 10:42:42;;;;;;;1999.90;999.90;;;7.10;99.90;;;;;;4989123;28;20062;-80
2023/02/10 10:45:23;;;;;;;1999.90;999.90;;;7.30;99.90;;;;;;4975818;28;20100;-82
2023/02/10 10:48:24;;;;;;;1999.90;999.90;;;7.30;99.90;;;;;;4997087;28;20038;-73
2023/02/10 10:50:49;;;;;;;1999.90;999.90;;;7.50;99.90;;;;;;4991917;28;20100;-73
2023/02/10 10:53:49;;;;;;;1999.90;999.90;;;7.60;99.90;;;;;;5005403;28;20051;-73
2023/02/10 10:56:36;;;;;;;1999.90;999.90;;;7.80;99.90;;;;;;5011169;28;20105;-82
2023/02/10 10:59:29;;;;;;;1999.90;999.90;;;8.10;99.90;;;;;;5052750;28;20112;-82
2023/02/10 11:01:55;;;;;;;1999.90;999.90;;;8.10;99.90;;;;;;5076789;28;20229;-81
2023/02/10 11:04:28;;;;;;;1999.90;999.90;;;8.30;99.90;;;;;;5059828;28;20145;-73
2023/02/10 11:06:56;;;;;;;1999.90;999.90;;;8.20;99.90;;;;;;5083722;28;20162;-73
2023/02/10 11:09:30;;;;;;;1999.90;999.90;;;8.30;99.90;;;;;;5088907;28;20032;-82
2023/02/10 11:12:33;;;;;;;1999.90;999.90;;;8.40;99.90;;;;;;5061007;28;20035;-82
2023/02/10 11:15:00;;;;;;;1999.90;999.90;;;8.50;99.90;;;;;;5072843;28;20059;-82
2023/02/10 11:17:30;;;;;;;1999.90;999.90;;;8.60;99.90;;;;;;5091951;28;20067;-81
2023/02/10 11:19:59;;;;;;;1999.90;999.90;;;8.60;99.90;;;;;;5077966;28;20541;-73
2023/02/10 11:22:25;;;;;;;1999.90;999.90;;;8.70;99.90;;;;;;5091368;28;20020;-81
2023/02/10 11:24:57;;;;;;;1999.90;999.90;;;8.90;99.90;;;;;;5084641;28;20032;-81
2023/02/10 11:27:23;;;;;;;1999.90;999.90;;;8.90;99.90;;;;;;5085893;28;20025;-82
2023/02/10 11:29:53;;;;;;;1999.90;999.90;;;8.90;99.90;;;;;;5063216;28;20033;-73
2023/02/10 11:32:32;;;;;;;1999.90;999.90;;;8.90;99.90;;;;;;5064388;28;20374;-82
2023/02/10 11:35:02;;;;;;;1999.90;999.90;;;9.10;99.90;;;;;;5072726;28;20401;-82
2023/02/10 11:37:27;;;;;;;1999.90;999.90;;;9.20;99.90;;;;;;5074852;28;20028;-81
2023/02/10 11:39:55;;;;;;;1999.90;999.90;;;9.30;99.90;;;;;;5080477;28;20480;-82
2023/02/10 11:42:25;;;;;;;1999.90;999.90;;;9.30;99.90;;;;;;5086930;28;20149;-82
2023/02/10 11:45:19;;;;;;;1999.90;999.90;;;9.40;99.90;;;;;;5081810;28;20044;-73
2023/02/10 11:47:45;;;;;;;1999.90;999.90;;;9.50;99.90;;;;;;5079283;28;20427;-73
2023/02/10 11:50:22;;;;;;;1999.90;999.90;;;9.70;99.90;;;;;;5090986;28;20020;-82
2023/02/10 11:52:48;;;;;;;1999.90;999.90;;;9.80;99.90;;;;;;5071483;28;20511;-73
2023/02/10 11:55:15;;;;;;;1999.90;999.90;;;9.80;99.90;;;;;;5089189;28;20032;-82
2023/02/10 12:01:09;;;;;;;1999.90;999.90;;;9.90;99.90;;;;;;5086499;28;20395;-82
2023/02/10 12:03:53;;;;;;;1999.90;999.90;;;10.00;99.90;;;;;;5072515;28;20454;-82
2023/02/10 12:06:36;;;;;;;1999.90;999.90;;;10.10;99.90;;;;;;5087633;28;20073;-82
2023/02/10 12:09:10;;;;;;;1999.90;999.90;;;10.10;99.90;;;;;;5086338;28;20107;-73
2023/02/10 12:11:48;;;;;;;1999.90;999.90;;;10.20;99.90;;;;;;5073515;28;20056;-73
2023/02/10 12:14:42;;;;;;;1999.90;999.90;;;10.30;99.90;;;;;;5091156;28;20534;-82
2023/02/10 12:17:17;;;;;;;1999.90;999.90;;;10.30;99.90;;;;;;5069700;28;20031;-73